Time;durP1;ratioP1;P1;durP2;ratioP2;P2;SDS_P1;SDS_P2;PMS_P1;PMS_P2;Temp;Humidity;BMP_temperature;BMP_pressure;BME280_temperature;BME280_humidity;BME280_pressure;Samples;Min_cycle;Max_cycle;Signal;HPM_P1;HPM_P2
2022/10/21 00:00:53;;;;;;;13.85;5.10;;;18.20;90.80;;;18.41;53.80;99326.34;5051157;27;20043;-78
2022/10/21 00:03:32;;;;;;;8.40;5.72;;;18.20;90.80;;;18.42;53.47;99332.69;5079075;27;20047;-78
2022/10/21 00:05:58;;;;;;;7.35;4.68;;;18.10;90.80;;;18.38;54.01;99331.69;5052027;28;20032;-78
2022/10/21 00:08:24;;;;;;;5.78;3.90;;;18.20;91.00;;;18.40;54.47;99321.19;5073190;28;20036;-78
2022/10/21 00:10:56;;;;;;;8.23;4.82;;;18.10;91.10;;;18.46;54.00;99322.69;5069293;28;20375;-78
2022/10/21 00:13:23;;;;;;;10.88;4.50;;;18.10;90.90;;;18.42;53.81;99314.25;5066985;27;20040;-78
2022/10/21 00:15:59;;;;;;;8.02;3.88;;;18.20;90.90;;;18.37;53.71;99314.38;5066798;28;20047;-78
2022/10/21 00:18:25;;;;;;;8.70;4.85;;;18.10;90.80;;;18.38;53.55;99310.50;5082774;28;20502;-78
2022/10/21 00:20:51;;;;;;;8.15;5.25;;;18.10;90.80;;;18.42;53.48;99300.53;5081847;28;20040;-78
2022/10/21 00:23:17;;;;;;;7.32;4.45;;;18.20;90.80;;;18.40;54.05;99290.97;5072364;28;20040;-78
2022/10/21 00:25:43;;;;;;;9.30;4.13;;;18.10;90.90;;;18.37;54.27;99297.09;5075217;28;20032;-78
2022/10/21 00:28:09;;;;;;;7.28;3.80;;;18.10;90.90;;;18.34;54.21;99293.06;5045052;28;20036;-78
2022/10/21 00:30:35;;;;;;;7.18;4.82;;;18.10;91.20;;;18.37;53.80;99281.44;5082022;28;20032;-78
2022/10/21 00:33:02;;;;;;;6.30;4.28;;;18.10;90.80;;;18.36;53.81;99268.00;5082521;28;20043;-78
2022/10/21 00:35:33;;;;;;;6.20;4.18;;;18.10;90.80;;;18.35;53.63;99264.44;5071904;28;20173;-78
2022/10/21 00:37:58;;;;;;;6.22;4.57;;;18.10;90.80;;;18.40;53.87;99264.31;5068337;28;20055;-78
2022/10/21 00:40:25;;;;;;;9.80;4.95;;;18.10;90.90;;;18.43;53.45;99255.44;5063538;28;20047;-78
2022/10/21 00:42:50;;;;;;;6.13;4.28;;;18.10;90.80;;;18.37;53.99;99248.47;5074794;28;20036;-78
2022/10/21 00:45:24;;;;;;;8.30;4.95;;;18.10;90.80;;;18.35;53.68;99245.22;5081975;28;20043;-77
2022/10/21 00:48:32;;;;;;;8.88;5.50;;;18.10;90.80;;;18.31;53.87;99266.19;5075994;28;20111;-77
2022/10/21 00:51:03;;;;;;;5.60;3.58;;;18.10;90.80;;;18.30;53.81;99281.06;5054214;28;20044;-77
2022/10/21 00:53:28;;;;;;;8.68;4.53;;;18.00;90.80;;;18.30;54.07;99266.53;5050695;28;20101;-78
2022/10/21 00:56:00;;;;;;;5.45;4.30;;;18.10;90.80;;;18.32;54.02;99254.09;5058407;28;20036;-78
2022/10/21 00:58:28;;;;;;;13.23;4.85;;;18.10;90.80;;;18.34;54.10;99260.09;5054770;28;20044;-77
2022/10/21 01:00:55;;;;;;;5.70;4.35;;;18.10;91.00;;;18.29;54.09;99257.44;5078921;28;20035;-78
2022/10/21 01:03:25;;;;;;;7.20;4.88;;;18.00;90.80;;;18.32;53.89;99245.88;5069366;28;20047;-78
2022/10/21 01:05:52;;;;;;;6.03;3.90;;;18.10;90.80;;;18.27;53.52;99253.41;5068481;28;20032;-78
2022/10/21 01:08:18;;;;;;;5.05;3.88;;;18.10;90.80;;;18.31;53.63;99244.22;5064814;28;20123;-78
2022/10/21 01:10:44;;;;;;;8.60;4.63;;;18.00;90.80;;;18.30;53.96;99242.63;5069223;28;20488;-78
2022/10/21 01:13:54;;;;;;;6.60;4.88;;;18.00;90.80;;;18.30;54.17;99248.09;5067870;28;20044;-78
2022/10/21 01:16:29;;;;;;;6.55;4.30;;;18.00;90.90;;;18.24;54.02;99232.88;5104105;28;20061;-78
2022/10/21 01:19:38;;;;;;;7.25;4.55;;;18.00;90.80;;;18.26;53.79;99241.59;5100442;28;20384;-78
2022/10/21 01:22:10;;;;;;;7.53;4.65;;;18.00;90.80;;;18.27;53.78;99247.91;5087929;28;20044;-78
2022/10/21 01:24:59;;;;;;;;;;;18.00;90.80;;;18.22;53.88;99254.38;5099928;28;20044;-78
2022/10/21 01:28:07;;;;;;;6.55;4.85;;;18.00;90.80;;;18.27;54.04;99254.22;5086574;28;20420;-78
2022/10/21 01:30:36;;;;;;;7.30;4.40;;;18.00;90.90;;;18.23;54.31;99255.97;5063676;28;20080;-78
2022/10/21 01:33:21;;;;;;;10.10;5.05;;;18.00;91.00;;;18.22;53.98;99249.66;5086319;28;20506;-78
2022/10/21 01:36:04;;;;;;;6.93;4.50;;;18.00;90.80;;;18.20;53.57;99248.38;5083016;28;20044;-78
2022/10/21 01:39:06;;;;;;;5.53;4.30;;;18.00;90.80;;;18.23;53.67;99251.28;5059422;28;20468;-78
2022/10/21 01:41:40;;;;;;;5.35;4.07;;;17.90;90.70;;;18.23;53.62;99239.50;5084343;28;20058;-78
2022/10/21 01:44:16;;;;;;;6.65;4.45;;;18.00;90.80;;;18.20;53.92;99232.69;5088824;28;20074;-78
2022/10/21 01:47:01;;;;;;;6.78;4.72;;;17.90;90.90;;;18.23;53.82;99234.00;5060159;28;20056;-78
2022/10/21 01:49:54;;;;;;;8.85;5.80;;;18.00;90.80;;;18.16;53.84;99236.38;5022631;28;20714;-78
2022/10/21 01:52:20;;;;;;;6.30;4.50;;;17.90;90.70;;;18.20;53.62;99231.91;5049344;28;20391;-78
2022/10/21 01:54:54;;;;;;;7.63;3.97;;;17.90;90.70;;;18.20;53.41;99221.72;5041761;28;20425;-78
2022/10/21 01:57:20;;;;;;;7.03;4.28;;;17.90;90.70;;;18.20;53.57;99220.91;5044631;28;20037;-78
2022/10/21 01:59:47;;;;;;;3.92;3.20;;;17.90;90.70;;;18.19;53.63;99230.25;5053589;28;20035;-78
2022/10/21 02:02:14;;;;;;;6.97;4.68;;;18.00;90.80;;;18.24;53.68;99227.38;5029770;28;20104;-78
2022/10/21 02:04:41;;;;;;;5.47;4.65;;;17.90;90.70;;;18.22;53.60;99224.16;5041708;28;20090;-78
2022/10/21 02:07:07;;;;;;;8.35;4.68;;;17.90;90.70;;;18.17;53.41;99222.34;5064327;28;20040;-78
2022/10/21 02:09:33;;;;;;;7.25;4.50;;;17.90;90.70;;;18.18;53.30;99217.66;5053740;28;20130;-78
2022/10/21 02:12:01;;;;;;;7.70;3.90;;;17.90;90.60;;;18.19;53.14;99214.63;5081485;28;20032;-78
2022/10/21 02:14:45;;;;;;;11.30;5.40;;;17.90;90.60;;;18.19;53.31;99211.03;5033693;28;20041;-78
2022/10/21 02:17:14;;;;;;;5.47;4.30;;;17.90;90.60;;;18.18;53.57;99212.97;5042059;28;20419;-78
2022/10/21 02:19:41;;;;;;;6.63;4.13;;;17.90;90.70;;;18.14;53.58;99222.16;5048581;28;20046;-78
2022/10/21 02:22:07;;;;;;;6.57;5.03;;;17.90;90.60;;;18.19;53.36;99214.63;5029593;28;20048;-78
2022/10/21 02:24:59;;;;;;;4.22;3.83;;;17.90;90.60;;;18.17;53.11;99205.06;5048336;28;20046;-78
2022/10/21 02:27:25;;;;;;;4.47;3.75;;;17.90;90.50;;;18.14;53.05;99206.50;5053358;28;20086;-78
2022/10/21 02:29:56;;;;;;;7.45;4.70;;;17.90;90.40;;;18.18;53.09;99201.19;5054306;28;20036;-78
2022/10/21 02:33:03;;;;;;;5.65;4.18;;;17.90;90.40;;;18.18;53.34;99190.19;5031723;28;20039;-78
2022/10/21 02:35:55;;;;;;;5.75;4.50;;;17.90;90.50;;;18.15;53.40;99197.13;5035549;28;20465;-78
2022/10/21 02:38:30;;;;;;;4.88;3.80;;;17.90;90.50;;;18.15;53.04;99190.84;5058466;28;20044;-78
2022/10/21 02:41:07;;;;;;;4.82;3.97;;;17.90;90.50;;;18.13;53.06;99188.41;5049028;28;20041;-78
2022/10/21 02:44:00;;;;;;;6.07;4.30;;;17.80;90.50;;;18.11;53.06;99189.84;5040682;28;20411;-78
2022/10/21 02:46:37;;;;;;;10.68;4.50;;;17.80;90.40;;;18.10;53.39;99200.00;5071469;28;20192;-78
2022/10/21 02:49:03;;;;;;;6.88;4.10;;;17.90;90.50;;;18.12;53.26;99195.03;5054751;28;20051;-78
2022/10/21 02:51:30;;;;;;;7.13;4.25;;;17.90;90.60;;;18.13;53.46;99193.09;5043033;28;20040;-78
2022/10/21 02:53:56;;;;;;;7.05;5.00;;;17.90;90.60;;;18.05;53.26;99180.94;5053637;28;20073;-78
2022/10/21 02:56:22;;;;;;;6.60;4.22;;;17.80;90.50;;;18.08;53.11;99184.97;5080659;28;20097;-78
2022/10/21 02:58:48;;;;;;;6.95;4.50;;;17.80;90.50;;;18.11;52.98;99182.41;5064413;28;20043;-78
2022/10/21 03:01:14;;;;;;;5.40;4.00;;;17.80;90.40;;;18.04;53.17;99175.75;5087641;28;20062;-78
2022/10/21 03:03:40;;;;;;;7.10;4.25;;;17.80;90.40;;;18.11;52.86;99190.63;5051697;28;20043;-78
2022/10/21 03:06:06;;;;;;;7.50;4.43;;;17.80;90.30;;;18.12;53.33;99196.97;5085467;28;20127;-78
2022/10/21 03:08:33;;;;;;;5.78;3.65;;;17.80;90.60;;;18.10;53.11;99199.22;5080632;28;20050;-78
2022/10/21 03:10:59;;;;;;;8.05;4.53;;;17.80;90.60;;;18.07;53.09;99189.66;5082481;28;20040;-78
2022/10/21 03:13:25;;;;;;;6.03;3.83;;;17.70;90.50;;;18.07;52.93;99186.91;5062991;28;20054;-78
2022/10/21 03:15:51;;;;;;;5.88;3.95;;;17.70;90.40;;;18.08;52.99;99184.97;5065523;27;20036;-78
2022/10/21 03:18:17;;;;;;;8.65;4.28;;;17.80;90.40;;;18.10;53.25;99174.50;5076756;27;20046;-78
2022/10/21 03:20:43;;;;;;;5.85;4.35;;;17.80;90.50;;;18.04;53.45;99178.47;5073070;27;20043;-78
2022/10/21 03:23:09;;;;;;;8.65;4.20;;;17.80;90.50;;;18.05;53.17;99174.63;5056745;28;20072;-78
2022/10/21 03:25:35;;;;;;;8.68;4.10;;;17.80;90.40;;;18.02;53.50;99191.72;5067059;27;20391;-77
2022/10/21 03:28:01;;;;;;;9.80;4.95;;;17.80;90.40;;;18.02;52.99;99180.75;5064558;27;20043;-78
2022/10/21 03:30:28;;;;;;;6.00;4.43;;;17.70;90.30;;;18.04;52.79;99168.34;5067819;27;20119;-78
2022/10/21 03:32:53;;;;;;;5.45;4.07;;;17.70;90.30;;;17.98;53.06;99162.16;5052885;27;20441;-78
2022/10/21 03:35:20;;;;;;;5.35;3.72;;;17.70;90.30;;;17.99;53.09;99160.22;5086208;27;20536;-77
2022/10/21 03:37:46;;;;;;;7.70;4.90;;;17.70;90.40;;;18.10;52.87;99164.31;5068466;27;20044;-78
2022/10/21 03:40:12;;;;;;;4.50;3.72;;;17.70;90.40;;;18.03;53.08;99171.38;5083861;27;20036;-78
2022/10/21 03:42:38;;;;;;;4.13;3.72;;;17.70;90.40;;;17.97;53.05;99160.53;5065037;28;20488;-78
2022/10/21 03:45:04;;;;;;;5.22;3.88;;;17.70;90.40;;;17.98;52.90;99164.88;5067589;28;20414;-78
2022/10/21 03:47:30;;;;;;;7.25;4.50;;;17.70;90.40;;;18.00;52.78;99151.66;5085982;28;20055;-77
2022/10/21 03:49:57;;;;;;;5.85;4.13;;;17.70;90.30;;;17.94;53.16;99154.88;5083671;27;20032;-77
2022/10/21 03:52:23;;;;;;;5.65;4.20;;;17.70;90.40;;;17.96;53.23;99156.19;5065573;27;20044;-78
2022/10/21 03:54:49;;;;;;;8.18;4.97;;;17.70;90.40;;;17.97;52.49;99137.78;5100409;27;20046;-77
2022/10/21 03:57:15;;;;;;;5.93;3.85;;;17.70;90.10;;;17.98;52.27;99142.94;5067757;27;20043;-78
2022/10/21 03:59:44;;;;;;;5.20;4.30;;;17.70;90.00;;;17.95;51.87;99140.03;5068297;28;20145;-78
2022/10/21 04:02:10;;;;;;;6.57;4.38;;;17.70;89.70;;;17.93;51.61;99140.31;5064984;27;20040;-78
2022/10/21 04:04:37;;;;;;;5.68;4.15;;;17.70;89.50;;;17.96;52.40;99136.97;5069090;28;20032;-78
2022/10/21 04:07:03;;;;;;;7.90;4.25;;;17.60;90.00;;;17.91;52.77;99123.38;5050313;28;20036;-78
2022/10/21 04:09:29;;;;;;;6.03;4.32;;;17.70;90.20;;;17.88;52.58;99124.00;5066110;28;20031;-78
2022/10/21 04:11:55;;;;;;;9.25;5.40;;;17.70;90.10;;;17.94;51.82;99130.97;5067289;28;20044;-78
2022/10/21 04:14:21;;;;;;;7.15;4.22;;;17.70;89.60;;;17.90;51.80;99119.00;5049651;28;20051;-78
2022/10/21 04:16:47;;;;;;;7.13;4.25;;;17.60;89.50;;;17.90;51.71;99121.75;5068700;28;20036;-77
2022/10/21 04:19:16;;;;;;;5.82;4.35;;;17.60;89.40;;;17.91;51.54;99120.63;5048077;28;20044;-78
2022/10/21 04:21:43;;;;;;;7.57;4.50;;;17.50;89.50;;;17.92;52.23;99108.53;5072904;28;20046;-78
2022/10/21 04:24:09;;;;;;;5.68;4.03;;;17.60;90.00;;;17.89;52.04;99111.09;5069542;28;20040;-78
2022/10/21 04:26:35;;;;;;;5.55;4.38;;;17.60;90.00;;;17.88;51.79;99115.75;5080627;28;20044;-78
2022/10/21 04:29:01;;;;;;;5.82;4.25;;;17.60;89.60;;;17.90;51.37;99119.00;5066125;28;20044;-78
2022/10/21 04:31:28;;;;;;;7.22;4.95;;;17.60;89.10;;;17.91;51.34;99114.31;5069402;28;20115;-78
2022/10/21 04:33:54;;;;;;;7.00;4.75;;;17.60;88.90;;;17.84;51.16;99109.28;5064606;28;20448;-78
2022/10/21 04:36:20;;;;;;;8.15;4.60;;;17.60;88.90;;;17.92;51.50;99108.53;5069380;28;20042;-78
2022/10/21 04:38:46;;;;;;;7.88;4.85;;;17.60;89.30;;;17.92;51.24;99108.53;5085609;28;20069;-78
2022/10/21 04:41:12;;;;;;;6.10;4.18;;;17.60;89.50;;;17.83;51.82;99093.13;5090610;28;20040;-78
2022/10/21 04:43:38;;;;;;;7.15;4.78;;;17.50;89.50;;;17.87;51.17;99103.16;5049977;28;20126;-77
2022/10/21 04:46:09;;;;;;;6.65;4.10;;;17.60;89.00;;;17.86;51.07;99107.06;5080206;28;20070;-78
2022/10/21 04:48:35;;;;;;;6.90;4.72;;;17.60;88.80;;;17.85;50.79;99091.69;5083469;28;20552;-77
2022/10/21 04:51:01;;;;;;;6.38;4.28;;;17.50;88.60;;;17.87;50.86;99097.69;5050570;28;20035;-77
2022/10/21 04:53:27;;;;;;;10.13;5.38;;;17.60;88.60;;;17.87;51.42;99086.69;5071514;28;20042;-78
2022/10/21 04:55:53;;;;;;;8.45;4.32;;;17.60;89.40;;;17.90;51.49;99077.84;5070401;28;20115;-78
2022/10/21 04:58:20;;;;;;;6.57;4.13;;;17.50;89.50;;;17.89;50.85;99092.69;5065044;28;20121;-78
2022/10/21 05:00:46;;;;;;;10.90;5.55;;;17.60;89.10;;;17.89;51.00;99095.44;5081829;28;20082;-77
2022/10/21 05:03:14;;;;;;;7.55;5.20;;;17.50;88.60;;;17.89;50.86;99100.94;5050342;28;20040;-77
2022/10/21 05:05:39;;;;;;;8.25;4.00;;;17.60;88.50;;;17.91;50.62;99095.09;5083678;28;20035;-77
2022/10/21 05:08:06;;;;;;;7.00;5.63;;;17.50;88.50;;;17.92;50.81;99097.53;5071450;28;20040;-77
2022/10/21 05:10:32;;;;;;;6.90;4.78;;;17.50;88.70;;;17.96;51.04;99089.47;5063196;28;20035;-77
2022/10/21 05:12:58;;;;;;;7.82;4.40;;;17.60;89.20;;;17.95;50.86;99093.34;5084164;28;20043;-77
2022/10/21 05:15:24;;;;;;;7.47;4.63;;;17.50;89.40;;;17.94;50.67;99098.06;5064796;28;20455;-77
2022/10/21 05:17:54;;;;;;;7.03;4.32;;;17.50;88.60;;;17.92;50.50;99104.97;5049116;28;20043;-77
2022/10/21 05:20:20;;;;;;;6.43;4.22;;;17.60;88.30;;;17.93;50.27;99095.59;5078940;28;20040;-78
2022/10/21 05:22:48;;;;;;;9.82;5.15;;;17.60;88.00;;;17.91;50.24;99104.16;5045567;28;20116;-77
2022/10/21 05:25:14;;;;;;;5.50;4.63;;;17.60;87.60;;;17.94;50.87;99109.03;5066601;28;20043;-77
2022/10/21 05:27:40;;;;;;;7.82;4.45;;;17.60;88.70;;;18.04;50.66;99093.41;5064165;28;20043;-78
2022/10/21 05:30:07;;;;;;;4.47;3.63;;;17.60;88.90;;;18.03;50.82;99092.59;5082415;28;20048;-78
2022/10/21 05:32:34;;;;;;;6.93;4.80;;;17.60;88.70;;;18.04;50.31;99099.72;5063611;28;20743;-79
2022/10/21 05:35:00;;;;;;;7.20;4.93;;;17.70;88.10;;;18.04;50.12;99096.97;5055953;28;20035;-78
2022/10/21 05:37:26;;;;;;;7.05;4.35;;;17.70;87.70;;;18.10;49.73;99097.63;5080781;27;20600;-78
2022/10/21 05:39:52;;;;;;;5.28;4.55;;;17.70;87.60;;;18.16;49.63;99108.16;5085295;28;20035;-78
2022/10/21 05:42:18;;;;;;;9.10;4.15;;;17.70;87.70;;;18.15;50.22;99101.03;5051282;28;20039;-79
2022/10/21 05:44:44;;;;;;;4.97;4.00;;;17.70;88.30;;;18.18;50.34;99102.34;5098551;27;20036;-80
2022/10/21 05:47:10;;;;;;;6.20;4.53;;;17.80;88.60;;;18.21;49.88;99102.50;5069772;27;20047;-80
2022/10/21 05:49:36;;;;;;;6.05;4.82;;;17.80;87.80;;;18.18;49.67;99096.84;5071612;27;20548;-79
2022/10/21 05:52:03;;;;;;;5.90;4.70;;;17.80;87.80;;;18.21;50.07;99105.25;5049503;27;20429;-79
2022/10/21 05:54:28;;;;;;;6.45;4.80;;;17.80;87.80;;;18.22;49.88;99106.09;5081861;27;20036;-79
2022/10/21 05:56:56;;;;;;;5.95;4.68;;;17.80;87.80;;;18.26;49.62;99104.31;5080986;27;20042;-79
2022/10/21 05:59:22;;;;;;;6.60;4.60;;;17.80;87.80;;;18.31;49.61;99098.69;5085342;28;20051;-77
2022/10/21 06:01:48;;;;;;;5.88;4.65;;;17.90;87.90;;;18.31;49.62;99090.44;5071097;27;20040;-79
2022/10/21 06:04:15;;;;;;;4.78;4.28;;;17.90;87.90;;;18.32;50.18;99085.75;5076261;28;20434;-78
2022/10/21 06:06:41;;;;;;;6.43;4.05;;;17.90;88.20;;;18.39;50.01;99067.72;5069836;28;20040;-78
2022/10/21 06:09:07;;;;;;;10.18;4.55;;;17.90;88.30;;;18.37;49.77;99050.75;5065868;27;20109;-77
2022/10/21 06:11:33;;;;;;;8.20;4.35;;;17.90;88.00;;;18.41;49.83;99062.69;5069483;28;20040;-77
2022/10/21 06:13:59;;;;;;;9.45;4.95;;;18.00;88.00;;;18.43;49.60;99084.34;5069198;28;20088;-77
2022/10/21 06:16:25;;;;;;;5.90;3.83;;;18.00;88.00;;;18.49;49.67;99106.97;5067695;28;20055;-77
2022/10/21 06:18:51;;;;;;;5.57;4.47;;;18.00;88.00;;;18.53;49.72;99121.72;5050284;28;20044;-76
2022/10/21 06:21:17;;;;;;;6.45;4.43;;;18.10;88.10;;;18.54;49.79;99137.84;5054076;28;20035;-77
2022/10/21 06:23:43;;;;;;;7.88;4.80;;;18.10;88.10;;;18.53;49.96;99129.94;5101604;27;20047;-78
2022/10/21 06:26:14;;;;;;;7.10;4.28;;;18.10;88.20;;;18.55;50.07;99142.25;5064941;28;20044;-78
2022/10/21 06:28:41;;;;;;;5.73;4.40;;;18.10;88.20;;;18.59;49.67;99142.41;5070080;28;20047;-78
2022/10/21 06:31:08;;;;;;;6.90;4.38;;;18.20;88.20;;;18.62;49.60;99139.00;5050318;28;20119;-77
2022/10/21 06:33:34;;;;;;;5.55;3.88;;;18.20;88.20;;;18.59;49.67;99134.16;5065927;28;20039;-77
2022/10/21 06:36:01;;;;;;;6.85;3.92;;;18.20;88.20;;;18.68;49.82;99148.75;5083843;28;20028;-78
2022/10/21 06:38:26;;;;;;;5.38;4.22;;;18.20;88.20;;;18.73;49.72;99145.03;5069993;28;20404;-77
2022/10/21 06:40:59;;;;;;;6.22;3.83;;;18.20;88.30;;;18.69;49.45;99128.38;5069979;28;20118;-77
2022/10/21 06:43:25;;;;;;;6.03;4.35;;;18.20;88.20;;;18.79;49.56;99138.28;5065843;28;20479;-77
2022/10/21 06:45:51;;;;;;;7.20;4.93;;;18.30;88.10;;;18.78;49.38;99129.25;5063846;28;20460;-77
2022/10/21 06:48:17;;;;;;;5.25;3.92;;;18.30;88.00;;;18.82;49.46;99119.22;5081681;28;20051;-77
2022/10/21 06:50:43;;;;;;;6.53;4.70;;;18.30;88.00;;;18.86;49.36;99131.19;5088422;28;20043;-77
2022/10/21 06:53:09;;;;;;;5.47;4.20;;;18.30;88.20;;;18.92;49.47;99120.03;5083778;28;20049;-77
2022/10/21 06:55:36;;;;;;;9.10;4.28;;;18.40;88.40;;;18.90;49.48;99127.78;5098718;27;20035;-77
2022/10/21 06:58:02;;;;;;;9.05;4.55;;;18.40;88.40;;;18.93;49.25;99121.66;5078803;28;20052;-77
2022/10/21 07:00:29;;;;;;;6.95;4.30;;;18.40;88.00;;;18.93;49.39;99127.97;5069034;28;20040;-77
2022/10/21 07:02:56;;;;;;;5.00;3.65;;;18.50;88.00;;;18.91;49.33;99124.75;5058735;28;20456;-77
2022/10/21 07:05:22;;;;;;;5.85;4.03;;;18.50;88.00;;;18.94;49.24;99129.59;5080487;28;20475;-77
2022/10/21 07:07:48;;;;;;;5.47;4.50;;;18.50;87.90;;;18.99;49.52;99134.13;5101037;27;20061;-77
2022/10/21 07:10:14;;;;;;;7.32;4.90;;;18.60;88.10;;;19.01;49.48;99129.94;5074659;28;20051;-77
2022/10/21 07:12:40;;;;;;;7.70;4.82;;;18.60;88.20;;;19.05;49.67;99124.59;5098474;27;20058;-77
2022/10/21 07:15:07;;;;;;;7.22;4.50;;;18.60;88.30;;;19.04;49.75;99128.47;5075561;28;20048;-77
2022/10/21 07:17:33;;;;;;;5.32;4.05;;;18.60;88.20;;;19.07;49.39;99120.38;5088301;28;20078;-77
2022/10/21 07:19:59;;;;;;;6.45;5.03;;;18.60;88.20;;;19.13;49.22;99118.28;5087018;27;20035;-77
2022/10/21 07:22:25;;;;;;;8.30;5.03;;;18.60;88.10;;;19.23;48.92;99117.16;5060615;27;20054;-77
2022/10/21 07:24:51;;;;;;;9.23;4.95;;;18.70;88.00;;;19.21;49.10;99112.00;5065501;27;20052;-77
2022/10/21 07:27:17;;;;;;;9.60;5.57;;;18.70;88.10;;;19.25;49.42;99112.94;5064134;28;20489;-77
2022/10/21 07:29:43;;;;;;;11.07;6.43;;;18.70;88.20;;;19.30;49.04;99109.22;5097122;27;20115;-77
2022/10/21 07:32:09;;;;;;;13.38;6.70;;;18.70;88.10;;;19.34;49.16;99098.41;5074621;27;20069;-78
2022/10/21 07:34:35;;;;;;;9.25;6.05;;;18.80;88.10;;;19.34;49.09;99099.22;5086135;27;20148;-78
2022/10/21 07:37:02;;;;;;;17.55;6.25;;;18.80;87.80;;;19.32;49.10;99095.97;5090717;28;20055;-78
2022/10/21 07:39:28;;;;;;;10.60;6.90;;;18.90;87.70;;;19.37;49.08;99092.25;5105125;27;20123;-78
2022/10/21 07:41:56;;;;;;;11.95;7.22;;;18.90;87.80;;;19.39;49.17;99087.25;5065673;28;20482;-78
2022/10/21 07:44:23;;;;;;;18.30;9.30;;;18.90;88.00;;;19.40;49.16;99084.16;5071315;27;20118;-78
2022/10/21 07:46:49;;;;;;;17.90;9.40;;;18.90;88.20;;;19.45;49.03;99081.22;5073756;28;20410;-78
2022/10/21 07:49:16;;;;;;;20.52;8.55;;;18.90;88.20;;;19.46;48.96;99082.03;5067619;28;20042;-78
2022/10/21 07:51:44;;;;;;;20.25;8.57;;;19.00;88.10;;;19.50;48.80;99074.75;5047785;28;20036;-78
2022/10/21 07:54:11;;;;;;;20.83;9.00;;;18.90;87.80;;;19.49;48.86;99081.41;5072286;27;20171;-78
2022/10/21 07:56:43;;;;;;;22.05;9.65;;;19.00;87.90;;;19.57;48.81;99083.31;5053401;28;20040;-78
2022/10/21 07:59:09;;;;;;;26.35;10.48;;;19.00;88.00;;;19.58;48.97;99071.16;5091760;28;20048;-78
2022/10/21 08:01:35;;;;;;;23.25;10.82;;;19.10;88.00;;;19.64;48.84;99069.88;5083641;27;20050;-78
2022/10/21 08:04:03;;;;;;;27.25;11.40;;;19.10;87.90;;;19.62;48.68;99071.34;5059045;28;20133;-78
2022/10/21 08:06:28;;;;;;;23.85;11.60;;;19.10;87.80;;;19.64;48.66;99056.13;5067532;27;20526;-78
2022/10/21 08:08:58;;;;;;;25.00;11.13;;;19.10;87.60;;;19.70;48.43;99054.84;5052191;27;20630;-78
2022/10/21 08:11:26;;;;;;;24.42;11.77;;;19.20;87.60;;;19.75;48.32;99053.03;5078721;28;20308;-78
2022/10/21 08:13:53;;;;;;;37.40;13.55;;;19.20;87.30;;;19.79;48.46;99042.97;5086057;28;20546;-78
2022/10/21 08:16:19;;;;;;;35.40;13.15;;;19.30;87.50;;;19.79;48.39;99041.03;5097811;27;20483;-78
2022/10/21 08:18:45;;;;;;;33.85;12.60;;;19.30;87.80;;;19.78;48.33;99041.38;5053924;27;20048;-78
2022/10/21 08:21:11;;;;;;;28.27;12.20;;;19.30;87.60;;;19.85;48.32;99041.69;5073481;28;20044;-78
2022/10/21 08:23:37;;;;;;;31.83;13.52;;;19.30;87.50;;;19.86;48.17;99037.78;5062110;27;20085;-78
2022/10/21 08:26:04;;;;;;;28.75;12.02;;;19.30;87.40;;;19.86;48.41;99037.78;5076138;28;20044;-78
2022/10/21 08:28:31;;;;;;;36.63;13.73;;;19.30;87.20;;;19.89;48.26;99031.59;5060306;27;20154;-78
2022/10/21 08:31:13;;;;;;;26.33;12.80;;;19.40;87.40;;;19.94;48.08;99025.91;5062209;28;20558;-78
2022/10/21 08:33:39;;;;;;;41.47;15.50;;;19.40;87.40;;;19.95;48.55;99025.59;5083375;28;20056;-78
2022/10/21 08:36:19;;;;;;;34.85;14.38;;;19.40;87.50;;;20.00;48.20;99010.03;5084529;27;20047;-78
2022/10/21 08:38:46;;;;;;;35.33;13.48;;;19.40;87.30;;;19.97;48.21;99013.44;5055229;27;20080;-78
2022/10/21 08:41:47;;;;;;;32.65;16.05;;;19.40;87.10;;;19.95;48.12;99020.09;5049884;28;20065;-78
2022/10/21 08:44:33;;;;;;;34.55;13.52;;;19.50;87.20;;;20.03;48.04;99003.88;5083308;28;20055;-78
2022/10/21 08:47:53;;;;;;;32.25;15.20;;;19.50;87.20;;;20.07;48.27;99013.06;5091006;28;20051;-78
2022/10/21 08:50:22;;;;;;;41.78;17.05;;;19.50;87.40;;;20.06;47.99;99006.75;5060846;28;20047;-79
2022/10/21 08:52:55;;;;;;;37.38;15.60;;;19.60;87.30;;;20.07;48.14;99016.63;5070229;28;20044;-78
2022/10/21 08:55:39;;;;;;;28.23;14.30;;;19.60;87.20;;;20.08;48.12;98998.97;5086547;28;20041;-80
2022/10/21 08:58:05;;;;;;;39.75;16.05;;;19.60;86.90;;;20.10;47.99;99004.97;5034388;28;20059;-80
2022/10/21 09:00:36;;;;;;;36.97;15.48;;;19.60;86.90;;;20.15;48.01;99003.97;5079190;28;20469;-80
2022/10/21 09:03:19;;;;;;;30.92;14.65;;;19.60;86.90;;;20.19;48.08;98998.59;5052850;28;20462;-79
2022/10/21 09:06:02;;;;;;;37.65;16.63;;;19.70;87.20;;;20.21;48.11;98986.13;5079284;28;20063;-79
2022/10/21 09:08:55;;;;;;;34.70;14.48;;;19.70;87.00;;;20.24;47.75;98985.44;5071696;28;20470;-81
2022/10/21 09:11:59;;;;;;;31.33;14.75;;;19.70;86.90;;;20.24;47.62;98984.63;5082308;28;20131;-81
2022/10/21 09:14:55;;;;;;;37.50;16.35;;;19.80;86.80;;;20.27;47.81;98982.00;5069657;28;20040;-80
2022/10/21 09:17:33;;;;;;;33.90;15.23;;;19.80;86.70;;;20.30;47.79;98981.38;5084346;27;20812;-80
2022/10/21 09:20:08;;;;;;;37.50;15.45;;;19.80;86.70;;;20.30;48.00;98975.03;5104506;27;20039;-81
2022/10/21 09:22:52;;;;;;;37.88;16.95;;;19.90;86.80;;;20.35;47.75;98975.66;5090455;27;20505;-81
2022/10/21 09:25:24;;;;;;;33.95;15.48;;;19.80;86.70;;;20.35;47.70;98977.59;5087152;28;20118;-81
2022/10/21 09:27:50;;;;;;;37.45;15.68;;;19.90;86.60;;;20.36;47.54;98965.44;5102656;27;20097;-80
2022/10/21 09:30:20;;;;;;;31.73;15.93;;;19.90;86.50;;;20.35;47.36;98956.38;5054776;28;20058;-80
2022/10/21 09:32:50;;;;;;;33.20;16.05;;;19.90;86.30;;;20.39;47.39;98959.25;5060854;28;20182;-80
2022/10/21 09:35:42;;;;;;;41.63;17.30;;;19.90;86.20;;;20.42;47.51;98966.03;5056489;27;20065;-81
2022/10/21 09:38:24;;;;;;;39.78;15.88;;;20.00;86.30;;;20.42;47.66;98957.78;5084933;27;20129;-80
2022/10/21 09:40:58;;;;;;;40.40;17.77;;;19.90;86.50;;;20.43;47.61;98970.41;5058702;28;20036;-81
2022/10/21 09:43:25;;;;;;;35.78;16.42;;;20.00;86.40;;;20.43;47.71;98962.13;5082372;28;20574;-82
2022/10/21 09:45:51;;;;;;;36.22;15.73;;;20.00;86.30;;;20.44;47.63;98952.75;5051676;27;20048;-82
2022/10/21 09:48:17;;;;;;;38.95;15.52;;;20.00;86.30;;;20.45;47.45;98955.16;5073936;27;20050;-82
2022/10/21 09:51:05;;;;;;;37.55;16.73;;;20.00;86.20;;;20.50;47.36;98945.88;5103699;27;20122;-80
2022/10/21 09:53:54;;;;;;;34.08;15.00;;;20.10;86.50;;;20.48;47.54;98937.97;5055659;27;20470;-80
2022/10/21 09:56:34;;;;;;;43.10;15.60;;;20.10;86.50;;;20.50;47.56;98923.84;5072431;28;20055;-81
2022/10/21 09:59:10;;;;;;;36.97;16.67;;;20.10;86.50;;;20.50;47.29;98916.38;5073186;27;20042;-81
2022/10/21 10:01:46;;;;;;;32.10;15.35;;;20.10;86.20;;;20.52;47.28;98921.56;5066832;27;20044;-81
2022/10/21 10:04:30;;;;;;;33.97;14.50;;;20.20;86.20;;;20.53;47.18;98924.00;5067320;27;20486;-81
2022/10/21 10:07:01;;;;;;;45.65;17.20;;;20.10;86.00;;;20.55;47.45;98916.19;5077562;28;20040;-80
2022/10/21 10:09:31;;;;;;;39.73;16.63;;;20.20;86.20;;;20.56;47.50;98914.28;5086233;28;20060;-80
2022/10/21 10:12:03;;;;;;;38.73;15.90;;;20.20;86.20;;;20.59;47.36;98897.06;5072489;28;20483;-81
2022/10/21 10:14:37;;;;;;;37.25;15.70;;;20.20;86.20;;;20.60;47.20;98888.44;5071184;28;20832;-81
2022/10/21 10:17:22;;;;;;;33.33;15.20;;;20.20;86.10;;;20.58;47.41;98893.50;5055787;28;20044;-80
2022/10/21 10:20:03;;;;;;;34.72;15.30;;;20.30;86.10;;;20.60;47.10;98890.41;5101500;27;20044;-80
2022/10/21 10:22:42;;;;;;;34.70;14.57;;;20.30;85.90;;;20.63;47.25;98888.91;5086653;28;20126;-81
2022/10/21 10:25:17;;;;;;;39.38;16.70;;;20.30;86.00;;;20.65;47.34;98883.88;5086612;28;20407;-81
2022/10/21 10:28:01;;;;;;;27.15;14.23;;;20.30;86.10;;;20.64;47.29;98879.50;5098167;27;20040;-80
2022/10/21 10:30:40;;;;;;;36.90;16.27;;;20.30;86.00;;;20.64;47.41;98891.34;5068312;27;20071;-80